sensor_id;sensor_type;location;lat;lon;timestamp;P1;durP1;ratioP1;P2;durP2;ratioP2
35745;SDS011;21870;42.812;74.628;2022-10-31T00:03:47;3.72;;;3.20;;
35745;SDS011;21870;42.812;74.628;2022-10-31T00:06:14;3.92;;;3.42;;
35745;SDS011;21870;42.812;74.628;2022-10-31T00:08:43;3.20;;;2.90;;
35745;SDS011;21870;42.812;74.628;2022-10-31T00:11:11;2.60;;;2.50;;
35745;SDS011;21870;42.812;74.628;2022-10-31T00:13:37;2.47;;;2.28;;
35745;SDS011;21870;42.812;74.628;2022-10-31T00:16:04;2.00;;;1.90;;
35745;SDS011;21870;42.812;74.628;2022-10-31T00:18:30;2.00;;;1.90;;
35745;SDS011;21870;42.812;74.628;2022-10-31T00:21:00;1.90;;;1.80;;
35745;SDS011;21870;42.812;74.628;2022-10-31T00:23:27;1.95;;;1.85;;
35745;SDS011;21870;42.812;74.628;2022-10-31T00:25:53;1.90;;;1.80;;
35745;SDS011;21870;42.812;74.628;2022-10-31T00:28:24;2.00;;;1.90;;
35745;SDS011;21870;42.812;74.628;2022-10-31T00:30:51;2.22;;;2.10;;
35745;SDS011;21870;42.812;74.628;2022-10-31T00:33:17;7.53;;;6.93;;
35745;SDS011;21870;42.812;74.628;2022-10-31T00:35:48;43.63;;;39.25;;
35745;SDS011;21870;42.812;74.628;2022-10-31T00:38:15;4.05;;;3.75;;
35745;SDS011;21870;42.812;74.628;2022-10-31T00:40:41;2.50;;;2.40;;
35745;SDS011;21870;42.812;74.628;2022-10-31T00:43:07;2.60;;;2.40;;
35745;SDS011;21870;42.812;74.628;2022-10-31T00:45:33;2.70;;;2.50;;
35745;SDS011;21870;42.812;74.628;2022-10-31T00:47:59;2.28;;;2.10;;
35745;SDS011;21870;42.812;74.628;2022-10-31T00:50:26;2.40;;;2.20;;
35745;SDS011;21870;42.812;74.628;2022-10-31T00:52:52;3.97;;;1.98;;
35745;SDS011;21870;42.812;74.628;2022-10-31T00:55:18;2.67;;;2.10;;
35745;SDS011;21870;42.812;74.628;2022-10-31T00:57:47;2.08;;;1.98;;
35745;SDS011;21870;42.812;74.628;2022-10-31T01:00:13;2.10;;;2.00;;
35745;SDS011;21870;42.812;74.628;2022-10-31T01:02:39;2.05;;;1.95;;
35745;SDS011;21870;42.812;74.628;2022-10-31T01:05:06;2.08;;;1.95;;
35745;SDS011;21870;42.812;74.628;2022-10-31T01:07:35;2.67;;;2.47;;
35745;SDS011;21870;42.812;74.628;2022-10-31T01:10:01;3.20;;;3.00;;
35745;SDS011;21870;42.812;74.628;2022-10-31T01:12:28;3.67;;;2.60;;
35745;SDS011;21870;42.812;74.628;2022-10-31T01:14:54;7.97;;;3.45;;
35745;SDS011;21870;42.812;74.628;2022-10-31T01:17:20;6.47;;;3.05;;
35745;SDS011;21870;42.812;74.628;2022-10-31T01:19:46;22.95;;;4.68;;
35745;SDS011;21870;42.812;74.628;2022-10-31T01:22:12;5.47;;;2.72;;
35745;SDS011;21870;42.812;74.628;2022-10-31T01:24:38;5.00;;;3.17;;
35745;SDS011;21870;42.812;74.628;2022-10-31T01:27:04;7.15;;;3.17;;
35745;SDS011;21870;42.812;74.628;2022-10-31T01:29:30;6.20;;;3.03;;
35745;SDS011;21870;42.812;74.628;2022-10-31T01:31:56;7.53;;;3.20;;
35745;SDS011;21870;42.812;74.628;2022-10-31T01:34:22;4.07;;;3.20;;
35745;SDS011;21870;42.812;74.628;2022-10-31T01:36:49;3.97;;;3.35;;
35745;SDS011;21870;42.812;74.628;2022-10-31T01:39:16;3.42;;;3.08;;
35745;SDS011;21870;42.812;74.628;2022-10-31T01:41:45;3.28;;;2.85;;
35745;SDS011;21870;42.812;74.628;2022-10-31T01:46:50;3.58;;;2.97;;
35745;SDS011;21870;42.812;74.628;2022-10-31T01:49:29;3.58;;;3.20;;
35745;SDS011;21870;42.812;74.628;2022-10-31T01:57:33;5.05;;;3.63;;
35745;SDS011;21870;42.812;74.628;2022-10-31T02:00:02;4.32;;;4.00;;
35745;SDS011;21870;42.812;74.628;2022-10-31T02:02:32;5.63;;;5.13;;
35745;SDS011;21870;42.812;74.628;2022-10-31T02:04:58;16.02;;;14.38;;
35745;SDS011;21870;42.812;74.628;2022-10-31T02:07:29;19.30;;;17.65;;
35745;SDS011;21870;42.812;74.628;2022-10-31T02:10:05;16.55;;;15.25;;
35745;SDS011;21870;42.812;74.628;2022-10-31T02:12:31;24.92;;;22.70;;
35745;SDS011;21870;42.812;74.628;2022-10-31T02:15:01;26.52;;;24.30;;
35745;SDS011;21870;42.812;74.628;2022-10-31T02:17:28;41.78;;;38.08;;
35745;SDS011;21870;42.812;74.628;2022-10-31T02:22:54;13.43;;;12.32;;
35745;SDS011;21870;42.812;74.628;2022-10-31T02:28:42;10.52;;;7.05;;
35745;SDS011;21870;42.812;74.628;2022-10-31T02:31:42;3.33;;;3.10;;
35745;SDS011;21870;42.812;74.628;2022-10-31T02:39:25;2.03;;;1.92;;
35745;SDS011;21870;42.812;74.628;2022-10-31T02:47:36;2.50;;;2.30;;
35745;SDS011;21870;42.812;74.628;2022-10-31T02:50:07;1.92;;;1.80;;
35745;SDS011;21870;42.812;74.628;2022-10-31T02:52:51;4.18;;;1.95;;
35745;SDS011;21870;42.812;74.628;2022-10-31T02:58:04;2.90;;;2.70;;
35745;SDS011;21870;42.812;74.628;2022-10-31T03:04:25;5.07;;;3.80;;
35745;SDS011;21870;42.812;74.628;2022-10-31T03:09:40;11.25;;;7.45;;
35745;SDS011;21870;42.812;74.628;2022-10-31T03:15:25;17.50;;;8.18;;
35745;SDS011;21870;42.812;74.628;2022-10-31T03:18:21;12.70;;;9.63;;
35745;SDS011;21870;42.812;74.628;2022-10-31T03:20:59;19.90;;;15.38;;
35745;SDS011;21870;42.812;74.628;2022-10-31T03:23:33;11.40;;;10.20;;
35745;SDS011;21870;42.812;74.628;2022-10-31T03:26:03;24.90;;;22.23;;
35745;SDS011;21870;42.812;74.628;2022-10-31T03:31:36;36.78;;;33.05;;
35745;SDS011;21870;42.812;74.628;2022-10-31T03:34:08;7.90;;;7.10;;
35745;SDS011;21870;42.812;74.628;2022-10-31T03:36:37;7.40;;;5.55;;
35745;SDS011;21870;42.812;74.628;2022-10-31T03:39:05;11.05;;;8.65;;
35745;SDS011;21870;42.812;74.628;2022-10-31T03:41:39;19.92;;;17.77;;
35745;SDS011;21870;42.812;74.628;2022-10-31T03:44:10;10.05;;;7.90;;
35745;SDS011;21870;42.812;74.628;2022-10-31T03:46:40;7.60;;;6.35;;
35745;SDS011;21870;42.812;74.628;2022-10-31T03:49:08;9.50;;;6.18;;
35745;SDS011;21870;42.812;74.628;2022-10-31T03:51:57;14.13;;;5.95;;
35745;SDS011;21870;42.812;74.628;2022-10-31T03:54:43;5.43;;;4.20;;
35745;SDS011;21870;42.812;74.628;2022-10-31T03:57:15;9.63;;;4.85;;
35745;SDS011;21870;42.812;74.628;2022-10-31T03:59:59;16.42;;;8.20;;
35745;SDS011;21870;42.812;74.628;2022-10-31T04:02:31;20.08;;;14.95;;
35745;SDS011;21870;42.812;74.628;2022-10-31T04:04:59;34.60;;;27.42;;
35745;SDS011;21870;42.812;74.628;2022-10-31T04:07:27;25.35;;;20.10;;
35745;SDS011;21870;42.812;74.628;2022-10-31T04:09:57;25.80;;;17.63;;
35745;SDS011;21870;42.812;74.628;2022-10-31T04:12:25;11.85;;;8.30;;
35745;SDS011;21870;42.812;74.628;2022-10-31T04:14:54;15.43;;;9.77;;
35745;SDS011;21870;42.812;74.628;2022-10-31T04:17:21;10.45;;;5.70;;
35745;SDS011;21870;42.812;74.628;2022-10-31T04:19:50;10.60;;;5.45;;
35745;SDS011;21870;42.812;74.628;2022-10-31T04:22:16;15.32;;;5.35;;
35745;SDS011;21870;42.812;74.628;2022-10-31T04:24:43;10.35;;;5.32;;
35745;SDS011;21870;42.812;74.628;2022-10-31T04:27:11;4.97;;;3.88;;
35745;SDS011;21870;42.812;74.628;2022-10-31T04:29:37;6.70;;;3.60;;
35745;SDS011;21870;42.812;74.628;2022-10-31T04:32:03;5.60;;;4.72;;
35745;SDS011;21870;42.812;74.628;2022-10-31T04:34:29;7.45;;;6.43;;
35745;SDS011;21870;42.812;74.628;2022-10-31T04:36:55;9.13;;;6.60;;
35745;SDS011;21870;42.812;74.628;2022-10-31T04:39:21;9.88;;;7.30;;
35745;SDS011;21870;42.812;74.628;2022-10-31T04:41:47;8.60;;;7.70;;
35745;SDS011;21870;42.812;74.628;2022-10-31T04:44:13;8.65;;;6.53;;
35745;SDS011;21870;42.812;74.628;2022-10-31T04:46:39;12.80;;;5.75;;
35745;SDS011;21870;42.812;74.628;2022-10-31T04:49:06;6.90;;;4.20;;
35745;SDS011;21870;42.812;74.628;2022-10-31T04:51:32;8.68;;;5.75;;
35745;SDS011;21870;42.812;74.628;2022-10-31T04:53:58;6.60;;;5.43;;
35745;SDS011;21870;42.812;74.628;2022-10-31T04:56:24;6.35;;;5.65;;
35745;SDS011;21870;42.812;74.628;2022-10-31T04:58:50;4.78;;;3.90;;
35745;SDS011;21870;42.812;74.628;2022-10-31T05:01:16;7.95;;;4.10;;
35745;SDS011;21870;42.812;74.628;2022-10-31T05:03:42;3.65;;;2.92;;
35745;SDS011;21870;42.812;74.628;2022-10-31T05:06:08;6.47;;;3.70;;
35745;SDS011;21870;42.812;74.628;2022-10-31T05:08:34;6.75;;;2.92;;
35745;SDS011;21870;42.812;74.628;2022-10-31T05:11:01;6.18;;;3.22;;
35745;SDS011;21870;42.812;74.628;2022-10-31T05:13:28;4.35;;;3.42;;
35745;SDS011;21870;42.812;74.628;2022-10-31T05:15:54;5.82;;;3.80;;
35745;SDS011;21870;42.812;74.628;2022-10-31T05:18:20;3.10;;;2.50;;
35745;SDS011;21870;42.812;74.628;2022-10-31T05:20:47;3.50;;;3.20;;
35745;SDS011;21870;42.812;74.628;2022-10-31T05:23:20;7.07;;;4.40;;
35745;SDS011;21870;42.812;74.628;2022-10-31T05:25:46;3.40;;;3.10;;
35745;SDS011;21870;42.812;74.628;2022-10-31T05:28:12;3.13;;;2.58;;
35745;SDS011;21870;42.812;74.628;2022-10-31T05:30:38;1.90;;;1.73;;
35745;SDS011;21870;42.812;74.628;2022-10-31T05:33:04;1.95;;;1.80;;
35745;SDS011;21870;42.812;74.628;2022-10-31T05:35:31;2.33;;;2.15;;
35745;SDS011;21870;42.812;74.628;2022-10-31T05:37:57;1.90;;;1.70;;
35745;SDS011;21870;42.812;74.628;2022-10-31T05:40:24;3.92;;;2.15;;
35745;SDS011;21870;42.812;74.628;2022-10-31T05:42:52;2.67;;;2.45;;
35745;SDS011;21870;42.812;74.628;2022-10-31T05:45:19;2.63;;;2.42;;
35745;SDS011;21870;42.812;74.628;2022-10-31T05:47:56;4.55;;;2.42;;
35745;SDS011;21870;42.812;74.628;2022-10-31T05:50:23;3.10;;;2.80;;
35745;SDS011;21870;42.812;74.628;2022-10-31T05:52:57;3.83;;;2.28;;
35745;SDS011;21870;42.812;74.628;2022-10-31T05:55:25;1.88;;;1.77;;
35745;SDS011;21870;42.812;74.628;2022-10-31T05:57:52;1.95;;;1.85;;
35745;SDS011;21870;42.812;74.628;2022-10-31T06:00:19;3.22;;;2.60;;
35745;SDS011;21870;42.812;74.628;2022-10-31T06:02:45;1.70;;;1.60;;
35745;SDS011;21870;42.812;74.628;2022-10-31T06:05:12;2.45;;;1.77;;
35745;SDS011;21870;42.812;74.628;2022-10-31T06:07:38;1.70;;;1.60;;
35745;SDS011;21870;42.812;74.628;2022-10-31T06:10:05;2.40;;;1.67;;
35745;SDS011;21870;42.812;74.628;2022-10-31T06:12:33;3.47;;;1.83;;
35745;SDS011;21870;42.812;74.628;2022-10-31T06:15:04;1.80;;;1.60;;
35745;SDS011;21870;42.812;74.628;2022-10-31T06:17:31;1.60;;;1.50;;
35745;SDS011;21870;42.812;74.628;2022-10-31T06:19:57;3.90;;;1.92;;
35745;SDS011;21870;42.812;74.628;2022-10-31T06:22:23;5.18;;;1.85;;
35745;SDS011;21870;42.812;74.628;2022-10-31T06:24:49;1.80;;;1.70;;
35745;SDS011;21870;42.812;74.628;2022-10-31T06:27:16;4.47;;;3.35;;
35745;SDS011;21870;42.812;74.628;2022-10-31T06:29:42;6.80;;;2.10;;
35745;SDS011;21870;42.812;74.628;2022-10-31T06:32:10;2.85;;;1.98;;
35745;SDS011;21870;42.812;74.628;2022-10-31T06:34:37;3.10;;;1.60;;
35745;SDS011;21870;42.812;74.628;2022-10-31T06:37:05;4.18;;;1.90;;
35745;SDS011;21870;42.812;74.628;2022-10-31T06:39:35;4.43;;;2.15;;
35745;SDS011;21870;42.812;74.628;2022-10-31T06:42:01;2.15;;;1.95;;
35745;SDS011;21870;42.812;74.628;2022-10-31T06:44:28;2.50;;;1.88;;
35745;SDS011;21870;42.812;74.628;2022-10-31T06:46:54;3.17;;;2.00;;
35745;SDS011;21870;42.812;74.628;2022-10-31T06:49:20;1.95;;;1.73;;
35745;SDS011;21870;42.812;74.628;2022-10-31T06:51:47;16.77;;;11.73;;
35745;SDS011;21870;42.812;74.628;2022-10-31T06:54:14;5.07;;;2.80;;
35745;SDS011;21870;42.812;74.628;2022-10-31T06:56:41;2.05;;;1.95;;
35745;SDS011;21870;42.812;74.628;2022-10-31T06:59:07;2.58;;;1.80;;
35745;SDS011;21870;42.812;74.628;2022-10-31T07:01:33;2.17;;;2.00;;
35745;SDS011;21870;42.812;74.628;2022-10-31T07:03:59;2.80;;;1.77;;
35745;SDS011;21870;42.812;74.628;2022-10-31T07:06:25;2.72;;;1.70;;
35745;SDS011;21870;42.812;74.628;2022-10-31T07:08:51;2.30;;;2.03;;
35745;SDS011;21870;42.812;74.628;2022-10-31T07:11:17;2.80;;;1.95;;
35745;SDS011;21870;42.812;74.628;2022-10-31T07:13:43;3.25;;;2.05;;
35745;SDS011;21870;42.812;74.628;2022-10-31T07:16:10;2.00;;;1.80;;
35745;SDS011;21870;42.812;74.628;2022-10-31T07:18:37;4.10;;;1.90;;
35745;SDS011;21870;42.812;74.628;2022-10-31T07:21:04;4.03;;;2.50;;
35745;SDS011;21870;42.812;74.628;2022-10-31T07:23:30;2.03;;;1.88;;
35745;SDS011;21870;42.812;74.628;2022-10-31T07:25:57;8.52;;;3.50;;
35745;SDS011;21870;42.812;74.628;2022-10-31T07:28:27;2.53;;;2.00;;
35745;SDS011;21870;42.812;74.628;2022-10-31T07:30:54;1.90;;;1.80;;
35745;SDS011;21870;42.812;74.628;2022-10-31T07:33:23;2.22;;;2.03;;
35745;SDS011;21870;42.812;74.628;2022-10-31T07:35:52;1.83;;;1.73;;
35745;SDS011;21870;42.812;74.628;2022-10-31T07:38:19;4.28;;;1.73;;
35745;SDS011;21870;42.812;74.628;2022-10-31T07:40:48;21.83;;;19.73;;
35745;SDS011;21870;42.812;74.628;2022-10-31T07:43:19;2.10;;;1.90;;
35745;SDS011;21870;42.812;74.628;2022-10-31T07:45:49;9.13;;;2.22;;
35745;SDS011;21870;42.812;74.628;2022-10-31T07:48:16;2.05;;;1.88;;
35745;SDS011;21870;42.812;74.628;2022-10-31T07:50:42;1.75;;;1.65;;
35745;SDS011;21870;42.812;74.628;2022-10-31T07:53:09;2.40;;;1.92;;
35745;SDS011;21870;42.812;74.628;2022-10-31T07:55:36;1.50;;;1.40;;
35745;SDS011;21870;42.812;74.628;2022-10-31T07:58:07;3.60;;;1.63;;
35745;SDS011;21870;42.812;74.628;2022-10-31T08:00:35;1.90;;;1.80;;
35745;SDS011;21870;42.812;74.628;2022-10-31T08:03:03;2.42;;;2.22;;
35745;SDS011;21870;42.812;74.628;2022-10-31T08:05:31;3.72;;;1.90;;
35745;SDS011;21870;42.812;74.628;2022-10-31T08:07:58;3.35;;;1.90;;
35745;SDS011;21870;42.812;74.628;2022-10-31T08:10:24;5.47;;;2.47;;
35745;SDS011;21870;42.812;74.628;2022-10-31T08:12:54;5.88;;;2.25;;
35745;SDS011;21870;42.812;74.628;2022-10-31T08:15:21;2.90;;;2.63;;
35745;SDS011;21870;42.812;74.628;2022-10-31T08:17:48;6.25;;;2.25;;
35745;SDS011;21870;42.812;74.628;2022-10-31T08:20:14;5.50;;;2.83;;
35745;SDS011;21870;42.812;74.628;2022-10-31T08:22:43;3.85;;;2.30;;
35745;SDS011;21870;42.812;74.628;2022-10-31T08:25:19;10.07;;;3.03;;
35745;SDS011;21870;42.812;74.628;2022-10-31T08:27:48;3.33;;;3.03;;
35745;SDS011;21870;42.812;74.628;2022-10-31T08:30:19;6.25;;;4.53;;
35745;SDS011;21870;42.812;74.628;2022-10-31T08:32:46;5.82;;;4.35;;
35745;SDS011;21870;42.812;74.628;2022-10-31T08:35:12;6.43;;;4.00;;
35745;SDS011;21870;42.812;74.628;2022-10-31T08:37:39;6.80;;;4.70;;
35745;SDS011;21870;42.812;74.628;2022-10-31T08:40:05;10.70;;;5.47;;
35745;SDS011;21870;42.812;74.628;2022-10-31T08:42:32;8.05;;;3.97;;
35745;SDS011;21870;42.812;74.628;2022-10-31T08:44:58;8.60;;;3.78;;
35745;SDS011;21870;42.812;74.628;2022-10-31T08:47:24;7.00;;;4.40;;
35745;SDS011;21870;42.812;74.628;2022-10-31T08:49:50;8.20;;;5.10;;
35745;SDS011;21870;42.812;74.628;2022-10-31T08:52:16;7.30;;;4.60;;
35745;SDS011;21870;42.812;74.628;2022-10-31T08:54:42;6.30;;;4.60;;
35745;SDS011;21870;42.812;74.628;2022-10-31T08:57:08;6.43;;;4.53;;
35745;SDS011;21870;42.812;74.628;2022-10-31T08:59:34;9.02;;;4.50;;
35745;SDS011;21870;42.812;74.628;2022-10-31T09:02:00;4.78;;;4.28;;
35745;SDS011;21870;42.812;74.628;2022-10-31T09:04:26;9.25;;;4.22;;
35745;SDS011;21870;42.812;74.628;2022-10-31T09:06:52;7.47;;;5.18;;
35745;SDS011;21870;42.812;74.628;2022-10-31T09:09:18;7.18;;;4.90;;
35745;SDS011;21870;42.812;74.628;2022-10-31T09:11:44;6.43;;;5.05;;
35745;SDS011;21870;42.812;74.628;2022-10-31T09:14:10;7.15;;;4.10;;
35745;SDS011;21870;42.812;74.628;2022-10-31T09:16:36;8.60;;;5.22;;
35745;SDS011;21870;42.812;74.628;2022-10-31T09:19:02;6.72;;;5.45;;
35745;SDS011;21870;42.812;74.628;2022-10-31T09:21:28;10.10;;;5.38;;
35745;SDS011;21870;42.812;74.628;2022-10-31T09:23:54;11.02;;;4.53;;
35745;SDS011;21870;42.812;74.628;2022-10-31T09:26:20;8.40;;;4.10;;
35745;SDS011;21870;42.812;74.628;2022-10-31T09:28:46;6.20;;;4.90;;
35745;SDS011;21870;42.812;74.628;2022-10-31T09:31:13;8.38;;;4.32;;
35745;SDS011;21870;42.812;74.628;2022-10-31T09:33:39;11.98;;;7.07;;
35745;SDS011;21870;42.812;74.628;2022-10-31T09:36:05;6.78;;;5.15;;
35745;SDS011;21870;42.812;74.628;2022-10-31T09:38:31;7.35;;;4.82;;
35745;SDS011;21870;42.812;74.628;2022-10-31T09:41:07;6.75;;;4.57;;
35745;SDS011;21870;42.812;74.628;2022-10-31T09:49:36;9.68;;;5.30;;
35745;SDS011;21870;42.812;74.628;2022-10-31T09:52:31;10.05;;;6.18;;
35745;SDS011;21870;42.812;74.628;2022-10-31T09:57:35;7.20;;;6.15;;
35745;SDS011;21870;42.812;74.628;2022-10-31T10:00:05;7.70;;;4.60;;
35745;SDS011;21870;42.812;74.628;2022-10-31T10:02:41;7.18;;;5.25;;
35745;SDS011;21870;42.812;74.628;2022-10-31T10:05:19;7.97;;;5.22;;
35745;SDS011;21870;42.812;74.628;2022-10-31T10:10:41;6.22;;;4.68;;
35745;SDS011;21870;42.812;74.628;2022-10-31T10:19:02;10.30;;;5.18;;
35745;SDS011;21870;42.812;74.628;2022-10-31T10:21:39;7.43;;;5.18;;
35745;SDS011;21870;42.812;74.628;2022-10-31T10:30:26;9.98;;;5.70;;
35745;SDS011;21870;42.812;74.628;2022-10-31T10:33:02;12.25;;;5.63;;
35745;SDS011;21870;42.812;74.628;2022-10-31T10:35:39;7.60;;;5.50;;
35745;SDS011;21870;42.812;74.628;2022-10-31T10:40:52;6.35;;;4.57;;
35745;SDS011;21870;42.812;74.628;2022-10-31T10:43:38;5.97;;;4.68;;
35745;SDS011;21870;42.812;74.628;2022-10-31T10:48:59;10.48;;;7.15;;
35745;SDS011;21870;42.812;74.628;2022-10-31T10:59:12;6.95;;;5.10;;
35745;SDS011;21870;42.812;74.628;2022-10-31T11:01:42;9.32;;;6.38;;
35745;SDS011;21870;42.812;74.628;2022-10-31T11:04:21;9.40;;;5.45;;
35745;SDS011;21870;42.812;74.628;2022-10-31T11:07:04;12.98;;;6.40;;
35745;SDS011;21870;42.812;74.628;2022-10-31T11:09:32;14.00;;;7.07;;
35745;SDS011;21870;42.812;74.628;2022-10-31T11:12:00;12.52;;;8.45;;
35745;SDS011;21870;42.812;74.628;2022-10-31T11:14:37;15.38;;;12.82;;
35745;SDS011;21870;42.812;74.628;2022-10-31T11:17:16;21.85;;;16.27;;
35745;SDS011;21870;42.812;74.628;2022-10-31T11:20:01;11.18;;;9.10;;
35745;SDS011;21870;42.812;74.628;2022-10-31T11:22:27;13.02;;;11.63;;
35745;SDS011;21870;42.812;74.628;2022-10-31T11:24:54;12.07;;;10.15;;
35745;SDS011;21870;42.812;74.628;2022-10-31T11:27:20;17.23;;;9.88;;
35745;SDS011;21870;42.812;74.628;2022-10-31T11:29:51;19.58;;;14.75;;
35745;SDS011;21870;42.812;74.628;2022-10-31T11:32:26;23.60;;;16.15;;
35745;SDS011;21870;42.812;74.628;2022-10-31T11:34:55;20.75;;;16.42;;
35745;SDS011;21870;42.812;74.628;2022-10-31T11:37:25;21.27;;;16.02;;
35745;SDS011;21870;42.812;74.628;2022-10-31T11:39:57;16.20;;;11.40;;
35745;SDS011;21870;42.812;74.628;2022-10-31T11:42:25;16.30;;;10.98;;
35745;SDS011;21870;42.812;74.628;2022-10-31T11:44:54;13.07;;;9.77;;
35745;SDS011;21870;42.812;74.628;2022-10-31T11:47:24;10.95;;;9.15;;
35745;SDS011;21870;42.812;74.628;2022-10-31T11:49:55;16.60;;;10.05;;
35745;SDS011;21870;42.812;74.628;2022-10-31T11:52:28;16.70;;;10.50;;
35745;SDS011;21870;42.812;74.628;2022-10-31T11:54:58;18.35;;;10.48;;
35745;SDS011;21870;42.812;74.628;2022-10-31T11:57:50;15.15;;;10.98;;
35745;SDS011;21870;42.812;74.628;2022-10-31T12:00:21;17.73;;;11.32;;
35745;SDS011;21870;42.812;74.628;2022-10-31T12:03:04;12.95;;;10.25;;
35745;SDS011;21870;42.812;74.628;2022-10-31T12:05:51;15.32;;;9.40;;
35745;SDS011;21870;42.812;74.628;2022-10-31T12:08:19;13.25;;;7.63;;
35745;SDS011;21870;42.812;74.628;2022-10-31T12:10:56;9.02;;;7.63;;
35745;SDS011;21870;42.812;74.628;2022-10-31T12:27:17;18.80;;;15.75;;
35745;SDS011;21870;42.812;74.628;2022-10-31T12:35:51;15.82;;;10.73;;
35745;SDS011;21870;42.812;74.628;2022-10-31T12:38:38;16.65;;;9.02;;
35745;SDS011;21870;42.812;74.628;2022-10-31T12:43:54;9.20;;;8.27;;
35745;SDS011;21870;42.812;74.628;2022-10-31T12:49:26;15.20;;;11.75;;
35745;SDS011;21870;42.812;74.628;2022-10-31T12:57:45;18.15;;;14.43;;
35745;SDS011;21870;42.812;74.628;2022-10-31T13:00:14;13.23;;;8.98;;
35745;SDS011;21870;42.812;74.628;2022-10-31T13:02:44;16.77;;;8.80;;
35745;SDS011;21870;42.812;74.628;2022-10-31T13:05:33;14.85;;;8.52;;
35745;SDS011;21870;42.812;74.628;2022-10-31T13:10:47;12.13;;;6.10;;
35745;SDS011;21870;42.812;74.628;2022-10-31T13:13:35;16.38;;;10.50;;
35745;SDS011;21870;42.812;74.628;2022-10-31T13:16:18;6.03;;;4.78;;
35745;SDS011;21870;42.812;74.628;2022-10-31T13:18:49;3.58;;;3.20;;
35745;SDS011;21870;42.812;74.628;2022-10-31T13:21:27;9.48;;;3.42;;
35745;SDS011;21870;42.812;74.628;2022-10-31T13:24:09;5.93;;;5.13;;
35745;SDS011;21870;42.812;74.628;2022-10-31T13:26:49;10.77;;;5.07;;
35745;SDS011;21870;42.812;74.628;2022-10-31T13:29:23;7.35;;;6.53;;
35745;SDS011;21870;42.812;74.628;2022-10-31T13:31:56;7.13;;;4.95;;
35745;SDS011;21870;42.812;74.628;2022-10-31T13:37:38;47.03;;;42.10;;
35745;SDS011;21870;42.812;74.628;2022-10-31T13:40:05;11.45;;;7.68;;
35745;SDS011;21870;42.812;74.628;2022-10-31T13:45:35;9.38;;;8.35;;
35745;SDS011;21870;42.812;74.628;2022-10-31T13:50:42;14.07;;;8.50;;
35745;SDS011;21870;42.812;74.628;2022-10-31T13:53:20;9.60;;;8.60;;
35745;SDS011;21870;42.812;74.628;2022-10-31T13:55:49;16.40;;;12.13;;
35745;SDS011;21870;42.812;74.628;2022-10-31T13:58:28;15.23;;;12.70;;
35745;SDS011;21870;42.812;74.628;2022-10-31T14:01:11;14.20;;;11.30;;
35745;SDS011;21870;42.812;74.628;2022-10-31T14:03:44;13.48;;;10.52;;
35745;SDS011;21870;42.812;74.628;2022-10-31T14:06:12;17.85;;;15.32;;
35745;SDS011;21870;42.812;74.628;2022-10-31T14:08:41;25.90;;;22.77;;
35745;SDS011;21870;42.812;74.628;2022-10-31T14:11:21;30.98;;;23.90;;
35745;SDS011;21870;42.812;74.628;2022-10-31T14:13:51;34.22;;;28.13;;
35745;SDS011;21870;42.812;74.628;2022-10-31T14:19:04;49.53;;;39.05;;
35745;SDS011;21870;42.812;74.628;2022-10-31T14:21:40;53.40;;;43.90;;
35745;SDS011;21870;42.812;74.628;2022-10-31T14:26:59;43.47;;;34.45;;
35745;SDS011;21870;42.812;74.628;2022-10-31T14:32:14;69.88;;;61.08;;
35745;SDS011;21870;42.812;74.628;2022-10-31T14:34:52;65.13;;;51.13;;
35745;SDS011;21870;42.812;74.628;2022-10-31T14:44:01;68.00;;;43.45;;
35745;SDS011;21870;42.812;74.628;2022-10-31T14:52:08;45.00;;;29.85;;
35745;SDS011;21870;42.812;74.628;2022-10-31T14:54:43;50.55;;;38.28;;
35745;SDS011;21870;42.812;74.628;2022-10-31T14:57:22;61.85;;;45.53;;
35745;SDS011;21870;42.812;74.628;2022-10-31T14:59:55;50.85;;;32.28;;
35745;SDS011;21870;42.812;74.628;2022-10-31T15:05:05;43.15;;;30.25;;
35745;SDS011;21870;42.812;74.628;2022-10-31T15:07:33;43.60;;;31.63;;
35745;SDS011;21870;42.812;74.628;2022-10-31T15:10:00;43.35;;;31.83;;
35745;SDS011;21870;42.812;74.628;2022-10-31T15:12:33;53.72;;;36.50;;
35745;SDS011;21870;42.812;74.628;2022-10-31T15:15:13;53.90;;;37.40;;
35745;SDS011;21870;42.812;74.628;2022-10-31T15:17:43;51.67;;;37.33;;
35745;SDS011;21870;42.812;74.628;2022-10-31T15:20:18;54.67;;;42.03;;
35745;SDS011;21870;42.812;74.628;2022-10-31T15:22:46;49.88;;;37.38;;
35745;SDS011;21870;42.812;74.628;2022-10-31T15:25:17;47.13;;;35.85;;
35745;SDS011;21870;42.812;74.628;2022-10-31T15:27:45;41.53;;;35.00;;
35745;SDS011;21870;42.812;74.628;2022-10-31T15:30:19;41.85;;;31.38;;
35745;SDS011;21870;42.812;74.628;2022-10-31T15:32:47;44.53;;;34.40;;
35745;SDS011;21870;42.812;74.628;2022-10-31T15:35:22;43.80;;;37.15;;
35745;SDS011;21870;42.812;74.628;2022-10-31T15:37:54;50.78;;;38.83;;
35745;SDS011;21870;42.812;74.628;2022-10-31T15:40:22;50.25;;;40.53;;
35745;SDS011;21870;42.812;74.628;2022-10-31T15:43:02;48.05;;;38.63;;
35745;SDS011;21870;42.812;74.628;2022-10-31T15:45:31;49.22;;;38.53;;
35745;SDS011;21870;42.812;74.628;2022-10-31T15:47:58;50.00;;;35.72;;
35745;SDS011;21870;42.812;74.628;2022-10-31T15:50:30;48.58;;;36.80;;
35745;SDS011;21870;42.812;74.628;2022-10-31T15:53:00;39.60;;;30.63;;
35745;SDS011;21870;42.812;74.628;2022-10-31T15:55:29;35.05;;;26.95;;
35745;SDS011;21870;42.812;74.628;2022-10-31T15:58:01;29.25;;;22.33;;
35745;SDS011;21870;42.812;74.628;2022-10-31T16:00:35;27.73;;;19.77;;
35745;SDS011;21870;42.812;74.628;2022-10-31T16:03:08;25.85;;;17.42;;
35745;SDS011;21870;42.812;74.628;2022-10-31T16:05:46;25.40;;;18.17;;
35745;SDS011;21870;42.812;74.628;2022-10-31T16:13:27;20.63;;;16.40;;
35745;SDS011;21870;42.812;74.628;2022-10-31T16:15:59;23.08;;;15.48;;
35745;SDS011;21870;42.812;74.628;2022-10-31T16:18:27;21.55;;;15.20;;
35745;SDS011;21870;42.812;74.628;2022-10-31T16:21:00;23.73;;;15.90;;
35745;SDS011;21870;42.812;74.628;2022-10-31T16:23:26;26.13;;;17.88;;
35745;SDS011;21870;42.812;74.628;2022-10-31T16:25:53;24.15;;;16.92;;
35745;SDS011;21870;42.812;74.628;2022-10-31T16:28:21;27.42;;;16.98;;
35745;SDS011;21870;42.812;74.628;2022-10-31T16:30:50;21.08;;;15.18;;
35745;SDS011;21870;42.812;74.628;2022-10-31T16:35:49;32.38;;;19.10;;
35745;SDS011;21870;42.812;74.628;2022-10-31T16:38:15;23.15;;;18.63;;
35745;SDS011;21870;42.812;74.628;2022-10-31T16:40:41;23.85;;;19.38;;
35745;SDS011;21870;42.812;74.628;2022-10-31T16:43:12;34.53;;;22.25;;
35745;SDS011;21870;42.812;74.628;2022-10-31T16:45:49;31.67;;;23.35;;
35745;SDS011;21870;42.812;74.628;2022-10-31T16:48:20;31.20;;;22.17;;
35745;SDS011;21870;42.812;74.628;2022-10-31T16:50:48;30.55;;;20.42;;
35745;SDS011;21870;42.812;74.628;2022-10-31T16:53:17;29.88;;;19.65;;
35745;SDS011;21870;42.812;74.628;2022-10-31T16:55:48;36.15;;;27.10;;
35745;SDS011;21870;42.812;74.628;2022-10-31T16:58:29;19.67;;;17.65;;
35745;SDS011;21870;42.812;74.628;2022-10-31T17:01:01;30.15;;;18.83;;
35745;SDS011;21870;42.812;74.628;2022-10-31T17:03:30;28.65;;;20.58;;
35745;SDS011;21870;42.812;74.628;2022-10-31T17:05:57;27.95;;;19.95;;
35745;SDS011;21870;42.812;74.628;2022-10-31T17:08:23;23.15;;;17.35;;
35745;SDS011;21870;42.812;74.628;2022-10-31T17:10:53;30.55;;;19.20;;
35745;SDS011;21870;42.812;74.628;2022-10-31T17:13:25;29.15;;;20.02;;
35745;SDS011;21870;42.812;74.628;2022-10-31T17:15:55;24.90;;;18.38;;